D/T METAR WX W/DIR W/SPE G/SPE TEMP DEWP
19/03/19 04:20 EGLL 190420Z AUTO 20004KT 9999 BKN029 OVC040 07/06 Q1025 NOSIG SSW (200°) 4.6mph 7°C 6°C
19/03/19 03:50 EGLL 190350Z AUTO 18004KT 9000 BKN035 07/06 Q1025 NOSIG S (180°) 4.6mph 7°C 6°C
19/03/19 03:20 EGLL 190320Z AUTO 16004KT 9999 NCD 06/05 Q1025 NOSIG SSE (160°) 4.6mph 6°C 5°C
19/03/19 02:50 EGLL 190250Z AUTO 23002KT 9999 NCD 07/06 Q1025 NOSIG SW (230°) 2.3mph 7°C 6°C
19/03/19 02:20 EGLL 190220Z AUTO 24003KT 9999 NCD 07/05 Q1025 NOSIG WSW (240°) 3.5mph 7°C 5°C
19/03/19 01:50 EGLL 190150Z AUTO 20003KT 9999 SCT043 07/05 Q1025 NOSIG SSW (200°) 3.5mph 7°C 5°C
19/03/19 01:20 EGLL 190120Z AUTO 22003KT 9999 FEW045 07/05 Q1025 NOSIG SW (220°) 3.5mph 7°C 5°C
19/03/19 00:50 EGLL 190050Z AUTO 22003KT 9999 BKN045 07/05 Q1025 NOSIG SW (220°) 3.5mph 7°C 5°C
18/03/19 23:50 EGLL 182350Z AUTO 25004KT 9999 FEW047 07/05 Q1024 NOSIG WSW (250°) 4.6mph 7°C 5°C
18/03/19 23:20 EGLL 182320Z AUTO 24005KT 9999 BKN047 08/05 Q1024 NOSIG WSW (240°) 5.8mph 8°C 5°C
18/03/19 22:50 EGLL 182250Z AUTO 24005KT 9999 OVC047 08/05 Q1024 NOSIG WSW (240°) 5.8mph 8°C 5°C
18/03/19 22:20 EGLL 182220Z AUTO 23006KT 200V270 9999 OVC046 07/06 Q1024 NOSIG SW (230°) 6.9mph 7°C 6°C
18/03/19 21:50 EGLL 182150Z AUTO 24007KT 9999 BKN045 07/05 Q1024 NOSIG WSW (240°) 8.1mph 7°C 5°C
18/03/19 20:50 EGLL 182050Z AUTO 24005KT 190V270 9999 BKN048 07/05 Q1024 NOSIG WSW (240°) 5.8mph 7°C 5°C
18/03/19 20:20 EGLL 182020Z AUTO 24006KT 210V270 9999 BKN041 08/05 Q1024 NOSIG WSW (240°) 6.9mph 8°C 5°C
18/03/19 19:50 EGLL 181950Z AUTO 22006KT 190V250 9999 BKN039 08/05 Q1023 NOSIG SW (220°) 6.9mph 8°C 5°C
18/03/19 19:20 EGLL 181920Z AUTO 23005KT 200V260 9999 FEW043 08/04 Q1023 NOSIG SW (230°) 5.8mph 8°C 4°C
18/03/19 18:50 EGLL 181850Z AUTO 23005KT 200V280 9999 NCD 08/04 Q1023 NOSIG SW (230°) 5.8mph 8°C 4°C
18/03/19 18:20 EGLL 181820Z AUTO VRB02KT 9999 NCD 08/04 Q1023 NOSIG N (0°) 2.3mph 8°C 4°C
18/03/19 17:50 EGLL 181750Z AUTO 26004KT 230V290 9999 -RA FEW035 BKN046 09/04 Q1022 NOSIG -RA W (260°) 4.6mph 9°C 4°C
18/03/19 17:20 EGLL 181720Z AUTO 28004KT 240V310 9999 -RA FEW046 09/04 Q1022 NOSIG -RA W (280°) 4.6mph 9°C 4°C
18/03/19 16:50 EGLL 181650Z AUTO 28006KT 9999 FEW045 08/04 Q1022 NOSIG W (280°) 6.9mph 8°C 4°C
18/03/19 16:20 EGLL 181620Z AUTO 29006KT 9999 -RA BKN041 09/05 Q1022 -RA WNW (290°) 6.9mph 9°C 5°C
18/03/19 15:20 EGLL 181520Z AUTO 29008KT 270V330 9999 NCD 10/03 Q1021 NOSIG WNW (290°) 9.2mph 10°C 3°C
18/03/19 14:50 EGLL 181450Z AUTO 29010KT 9999 NCD 10/03 Q1021 NOSIG WNW (290°) 11.5mph 10°C 3°C
18/03/19 14:20 EGLL 181420Z AUTO 30011KT 9999 FEW043 10/04 Q1021 TEMPO SHRA WNW (300°) 12.7mph 10°C 4°C
18/03/19 13:50 EGLL 181350Z AUTO 30006KT 280V340 9999 -RA FEW049 10/03 Q1021 TEMPO SHRA -RA WNW (300°) 6.9mph 10°C 3°C
18/03/19 13:20 EGLL 181320Z AUTO 30006KT 260V340 9999 -RA SCT044/// //////TCU 10/03 Q1021 TEMPO SHRA -RA WNW (300°) 6.9mph 10°C 3°C
18/03/19 12:50 EGLL 181250Z AUTO 27008KT 9999 -RA SCT030 SCT045 10/02 Q1021 TEMPO SHRA -RA W (270°) 9.2mph 10°C 2°C
18/03/19 12:20 EGLL 181220Z AUTO 30007KT 270V340 9999 -RA BKN033 10/04 Q1021 TEMPO SHRA -RA WNW (300°) 8.1mph 10°C 4°C
18/03/19 11:50 EGLL 181150Z AUTO 29008KT 260V320 9999 SCT032 11/04 Q1021 NOSIG WNW (290°) 9.2mph 11°C 4°C
18/03/19 11:20 EGLL 181120Z AUTO 30008KT 270V350 9999 BKN031 10/03 Q1021 NOSIG WNW (300°) 9.2mph 10°C 3°C
18/03/19 10:50 EGLL 181050Z AUTO 29009KT 9999 SCT030 10/04 Q1021 NOSIG WNW (290°) 10.4mph 10°C 4°C
18/03/19 10:20 EGLL 181020Z AUTO 30007KT 270V330 9999 SCT025 BKN030 BKN040 09/04 Q1021 NOSIG WNW (300°) 8.1mph 9°C 4°C
18/03/19 09:50 EGLL 180950Z AUTO 27007KT 220V290 9999 FEW024 09/04 Q1021 NOSIG W (270°) 8.1mph 9°C 4°C
18/03/19 09:20 EGLL 180920Z AUTO 27008KT 9999 NCD 08/04 Q1021 NOSIG W (270°) 9.2mph 8°C 4°C
18/03/19 08:20 EGLL 180820Z AUTO 27008KT 9999 NCD 06/03 Q1020 NOSIG W (270°) 9.2mph 6°C 3°C
18/03/19 07:50 EGLL 180750Z AUTO 27008KT 9999 NCD 06/03 Q1020 NOSIG W (270°) 9.2mph 6°C 3°C
18/03/19 07:20 EGLL 180720Z AUTO 27009KT 9999 NCD 05/02 Q1020 NOSIG W (270°) 10.4mph 5°C 2°C
18/03/19 06:50 EGLL 180650Z AUTO 27007KT 9999 NCD 04/02 Q1019 NOSIG W (270°) 8.1mph 4°C 2°C
18/03/19 06:20 EGLL 180620Z AUTO 28007KT 9999 NCD 04/02 Q1019 NOSIG W (280°) 8.1mph 4°C 2°C
18/03/19 05:50 EGLL 180550Z AUTO 28007KT 9999 NCD 04/02 Q1019 NOSIG W (280°) 8.1mph 4°C 2°C
18/03/19 05:20 EGLL 180520Z AUTO 27008KT 9999 NCD 04/02 Q1018 NOSIG W (270°) 9.2mph 4°C 2°C
18/03/19 04:50 EGLL 180450Z AUTO 27007KT 9999 NCD 04/02 Q1018 NOSIG W (270°) 8.1mph 4°C 2°C
18/03/19 04:20 EGLL 180420Z AUTO 26007KT 9999 NCD 04/02 Q1018 NOSIG W (260°) 8.1mph 4°C 2°C
18/03/19 03:50 EGLL 180350Z AUTO 27008KT 9999 NCD 04/02 Q1017 NOSIG W (270°) 9.2mph 4°C 2°C
18/03/19 03:20 EGLL 180320Z AUTO 29007KT 9999 NCD 03/02 Q1017 NOSIG WNW (290°) 8.1mph 3°C 2°C
18/03/19 02:50 EGLL 180250Z AUTO 29006KT 9999 NCD 03/01 Q1017 NOSIG WNW (290°) 6.9mph 3°C 1°C
18/03/19 02:20 EGLL 180220Z AUTO 28009KT 9999 NCD 04/02 Q1017 W (280°) 10.4mph 4°C 2°C
18/03/19 01:50 EGLL 180150Z AUTO 29008KT 9999 NCD 05/02 Q1016 NOSIG WNW (290°) 9.2mph 5°C 2°C
18/03/19 01:20 EGLL 180120Z AUTO 28008KT 9999 NCD 04/02 Q1016 NOSIG W (280°) 9.2mph 4°C 2°C
18/03/19 00:50 EGLL 180050Z AUTO 27007KT 9999 NCD 04/02 Q1015 NOSIG W (270°) 8.1mph 4°C 2°C
18/03/19 00:20 EGLL 180020Z AUTO 29006KT 9999 NCD 05/03 Q1015 NOSIG WNW (290°) 6.9mph 5°C 3°C
17/03/19 23:50 EGLL 172350Z AUTO 27008KT 9999 NCD 05/03 Q1015 NOSIG W (270°) 9.2mph 5°C 3°C
17/03/19 23:20 EGLL 172320Z AUTO 28006KT 9999 FEW019 06/03 Q1014 NOSIG W (280°) 6.9mph 6°C 3°C
17/03/19 22:50 EGLL 172250Z AUTO 28008KT 9999 -RA FEW011 SCT031 BKN044 06/04 Q1014 NOSIG -RA W (280°) 9.2mph 6°C 4°C
17/03/19 22:20 EGLL 172220Z AUTO 28009KT 9999 SCT046 06/03 Q1014 NOSIG W (280°) 10.4mph 6°C 3°C
17/03/19 21:50 EGLL 172150Z AUTO 28008KT 9999 BKN043 BKN049 07/03 Q1013 NOSIG W (280°) 9.2mph 7°C 3°C
17/03/19 21:20 EGLL 172120Z AUTO 28009KT 9999 FEW048 07/03 Q1013 NOSIG W (280°) 10.4mph 7°C 3°C
17/03/19 20:20 EGLL 172020Z AUTO 28011KT 9999 BKN047 07/03 Q1012 NOSIG W (280°) 12.7mph 7°C 3°C
17/03/19 19:50 EGLL 171950Z AUTO 28013KT 9999 SCT046 06/03 Q1011 NOSIG W (280°) 15.0mph 6°C 3°C
17/03/19 19:20 EGLL 171920Z AUTO 28013KT 9999 BKN037 06/03 Q1011 W (280°) 15.0mph 6°C 3°C
17/03/19 18:50 EGLL 171850Z AUTO 28014KT 9999 SCT031 BKN037 07/03 Q1010 NOSIG W (280°) 16.1mph 7°C 3°C
17/03/19 18:20 EGLL 171820Z AUTO 27018KT 9999 FEW036 SCT049 07/02 Q1010 NOSIG W (270°) 20.7mph 7°C 2°C
17/03/19 17:50 EGLL 171750Z AUTO 26014KT 9999 -RA SCT037 BKN044 08/02 Q1009 NOSIG -RA W (260°) 16.1mph 8°C 2°C
17/03/19 17:20 EGLL 171720Z AUTO 27012KT 9999 NCD 08/02 Q1009 TEMPO SHRA W (270°) 13.8mph 8°C 2°C
17/03/19 16:50 EGLL 171650Z AUTO 27016KT 9999 NCD 09/01 Q1008 TEMPO SHRA W (270°) 18.4mph 9°C 1°C
17/03/19 16:20 EGLL 171620Z AUTO 29010G21KT 240V320 9999 //////TCU 08/01 Q1008 NOSIG WNW (290°) 11.5mph 24.2mph 8°C 1°C
17/03/19 15:20 EGLL 171520Z 30009KT 260V360 7000 SHGR SCT026CB BKN042 08/01 Q1007 RESHGR BECMG NSW SHGR WNW (300°) 10.4mph 8°C 1°C
17/03/19 14:50 EGLL 171450Z 28018G30KT 250V320 9999 -SHRA SCT040CB BKN048 09/M00 Q1007 TEMPO SHRAGS -SHRA W (280°) 20.7mph 34.5mph 9°C 0°C
17/03/19 13:50 EGLL 171350Z 29008KT 9999 FEW019TCU SCT030 BKN046 07/02 Q1007 TEMPO SHRA WNW (290°) 9.2mph 7°C 2°C
17/03/19 13:20 EGLL 171320Z AUTO 27020KT 9999 SCT049 10/M00 Q1006 TEMPO SHRA W (270°) 23.0mph 10°C 0°C
17/03/19 12:50 EGLL 171250Z AUTO 27017KT 9999 NCD 10/00 Q1006 TEMPO SHRA W (270°) 19.6mph 10°C 0°C
17/03/19 12:20 EGLL 171220Z AUTO 27016KT 9999 FEW046 09/00 Q1006 NOSIG W (270°) 18.4mph 9°C 0°C
17/03/19 11:20 EGLL 171120Z AUTO 27018KT 9999 NCD 08/01 Q1006 NOSIG W (270°) 20.7mph 8°C 1°C
17/03/19 10:50 EGLL 171050Z AUTO 28015KT 9999 SCT034 SCT043 08/01 Q1006 NOSIG W (280°) 17.3mph 8°C 1°C
17/03/19 10:20 EGLL 171020Z AUTO 28015KT 9999 FEW031 BKN037 07/01 Q1005 NOSIG W (280°) 17.3mph 7°C 1°C
17/03/19 09:50 EGLL 170950Z AUTO 28013KT 9999 SCT028 BKN032 BKN038 07/02 Q1005 W (280°) 15.0mph 7°C 2°C
17/03/19 09:20 EGLL 170920Z AUTO 28014KT 9999 FEW025 06/02 Q1005 W (280°) 16.1mph 6°C 2°C
17/03/19 08:50 EGLL 170850Z AUTO 27014KT 9999 NCD 06/02 Q1004 NOSIG W (270°) 16.1mph 6°C 2°C
17/03/19 08:20 EGLL 170820Z AUTO 27013KT 9999 NCD 06/02 Q1004 NOSIG W (270°) 15.0mph 6°C 2°C
17/03/19 07:50 EGLL 170750Z AUTO 27013KT 9999 NCD 05/02 Q1003 NOSIG W (270°) 15.0mph 5°C 2°C
17/03/19 07:20 EGLL 170720Z AUTO 26012KT 9999 NCD 05/02 Q1003 NOSIG W (260°) 13.8mph 5°C 2°C
17/03/19 06:50 EGLL 170650Z AUTO 27010KT 9999 NCD 04/02 Q1002 NOSIG W (270°) 11.5mph 4°C 2°C
17/03/19 06:20 EGLL 170620Z AUTO 26009KT 9999 NCD 04/02 Q1001 NOSIG W (260°) 10.4mph 4°C 2°C
17/03/19 05:50 EGLL 170550Z AUTO 27009KT 9999 NCD 05/02 Q1001 NOSIG W (270°) 10.4mph 5°C 2°C
17/03/19 05:20 EGLL 170520Z AUTO 26011KT 9999 NCD 05/03 Q1000 NOSIG W (260°) 12.7mph 5°C 3°C
17/03/19 04:50 EGLL 170450Z AUTO 27010KT 9999 NCD 05/03 Q1000 NOSIG W (270°) 11.5mph 5°C 3°C
17/03/19 04:20 EGLL 170420Z AUTO 26013KT 9999 NCD 05/03 Q1000 NOSIG W (260°) 15.0mph 5°C 3°C
17/03/19 03:50 EGLL 170350Z AUTO 26013KT 9999 FEW029 05/03 Q0999 W (260°) 15.0mph 5°C 3°C
17/03/19 03:20 EGLL 170320Z AUTO 26013KT 9999 FEW024 SCT031 06/03 Q0999 NOSIG W (260°) 15.0mph 6°C 3°C
17/03/19 02:50 EGLL 170250Z AUTO 27011KT 9999 FEW023 SCT043 06/04 Q0998 NOSIG W (270°) 12.7mph 6°C 4°C
17/03/19 02:20 EGLL 170220Z AUTO 26012KT 9999 NCD 06/04 Q0998 NOSIG W (260°) 13.8mph 6°C 4°C
17/03/19 01:50 EGLL 170150Z AUTO 25012KT 9999 //////TCU 07/04 Q0998 NOSIG WSW (250°) 13.8mph 7°C 4°C
17/03/19 01:20 EGLL 170120Z AUTO 25012KT 9999 BKN018 07/05 Q0998 NOSIG WSW (250°) 13.8mph 7°C 5°C
17/03/19 00:50 EGLL 170050Z AUTO 25011KT 9999 BKN019 07/05 Q0997 NOSIG WSW (250°) 12.7mph 7°C 5°C
16/03/19 23:50 EGLL 162350Z AUTO 27012KT 9999 FEW025 SCT035 08/06 Q0997 NOSIG W (270°) 13.8mph 8°C 6°C
16/03/19 23:20 EGLL 162320Z AUTO 26014KT 9999 -RA BKN017 BKN025 08/06 Q0996 NOSIG -RA W (260°) 16.1mph 8°C 6°C
16/03/19 22:20 EGLL 162220Z AUTO 25013KT 9999 -RA FEW026 09/07 Q0996 NOSIG -RA WSW (250°) 15.0mph 9°C 7°C
16/03/19 21:50 EGLL 162150Z AUTO 26015KT 9999 -RA SCT033/// BKN044/// //////CB 09/07 Q0996 NOSIG -RA W (260°) 17.3mph 9°C 7°C
16/03/19 21:20 EGLL 162120Z 26021KT 8000 -RA FEW014CB BKN020 BKN032 09/07 Q0996 RERA NOSIG -RA W (260°) 24.2mph 9°C 7°C
16/03/19 20:50 EGLL 162050Z AUTO 22018G28KT 9999 -RA BKN013/// OVC044/// //////CB 10/09 Q0995 TEMPO 4000 RA -RA SW (220°) 20.7mph 32.2mph 10°C 9°C
16/03/19 20:20 EGLL 162020Z AUTO 22017KT 6000 -RA BKN010/// OVC018/// //////TCU 10/09 Q0996 RERA TEMPO 4000 RA BKN009 -RA SW (220°) 19.6mph 10°C 9°C
16/03/19 19:50 EGLL 161950Z AUTO 22018KT 6000 -RA SCT011 BKN016 OVC021 10/08 Q0996 TEMPO RA BKN011 -RA SW (220°) 20.7mph 10°C 8°C
16/03/19 19:20 EGLL 161920Z AUTO 22016G26KT 9000 -RA BKN012 BKN018 OVC024 10/08 Q0996 TEMPO 4000 RA -RA SW (220°) 18.4mph 29.9mph 10°C 8°C
16/03/19 18:20 EGLL 161820Z AUTO 22020G31KT 9999 BKN017 OVC032 11/07 Q0997 TEMPO RA BKN014 SW (220°) 23.0mph 35.7mph 11°C 7°C
16/03/19 17:50 EGLL 161750Z AUTO 22022KT 9999 -RA OVC018 11/07 Q0998 TEMPO RA BKN014 -RA SW (220°) 25.3mph 11°C 7°C
16/03/19 17:20 EGLL 161720Z AUTO 22023G36KT 9999 OVC021 11/07 Q0998 NOSIG SW (220°) 26.5mph 41.4mph 11°C 7°C
16/03/19 16:50 EGLL 161650Z AUTO 23026G36KT 9999 BKN022 OVC029 11/07 Q0998 NOSIG SW (230°) 29.9mph 41.4mph 11°C 7°C
16/03/19 16:20 EGLL 161620Z AUTO 23022G33KT 9999 BKN025 OVC030 11/06 Q0998 NOSIG SW (230°) 25.3mph 38.0mph 11°C 6°C
16/03/19 15:20 EGLL 161520Z AUTO 23022G37KT 9999 BKN025 OVC030 12/06 Q0999 SW (230°) 25.3mph 42.6mph 12°C 6°C
16/03/19 14:50 EGLL 161450Z AUTO 23026G39KT 9999 BKN026 OVC032 12/07 Q1000 NOSIG SW (230°) 29.9mph 44.9mph 12°C 7°C
16/03/19 14:20 EGLL 161420Z AUTO 24021G31KT 9999 BKN025 OVC031 12/07 Q1000 NOSIG WSW (240°) 24.2mph 35.7mph 12°C 7°C
16/03/19 13:20 EGLL 161320Z AUTO 23021G31KT 9999 BKN023 OVC036 12/07 Q1002 NOSIG SW (230°) 24.2mph 35.7mph 12°C 7°C
16/03/19 12:50 EGLL 161250Z AUTO 23028KT 9999 SCT023 BKN028 OVC033 12/07 Q1002 NOSIG SW (230°) 32.2mph 12°C 7°C
16/03/19 12:20 EGLL 161220Z AUTO 24024KT 9999 SCT027 OVC034 12/07 Q1002 NOSIG WSW (240°) 27.6mph 12°C 7°C
16/03/19 11:50 EGLL 161150Z AUTO 24023G36KT 9999 OVC026 12/06 Q1003 NOSIG WSW (240°) 26.5mph 41.4mph 12°C 6°C
16/03/19 11:20 EGLL 161120Z AUTO 24022G32KT 9999 OVC022 11/07 Q1003 NOSIG WSW (240°) 25.3mph 36.8mph 11°C 7°C
16/03/19 10:50 EGLL 161050Z AUTO 23022G33KT 9999 BKN023 OVC029 11/07 Q1004 NOSIG SW (230°) 25.3mph 38.0mph 11°C 7°C
16/03/19 10:20 EGLL 161020Z AUTO 24022KT 9999 BKN026 OVC035 12/06 Q1004 WSW (240°) 25.3mph 12°C 6°C
16/03/19 09:20 EGLL 160920Z AUTO 24020KT 9999 BKN022 BKN027 OVC031 11/06 Q1005 NOSIG WSW (240°) 23.0mph 11°C 6°C
16/03/19 08:50 EGLL 160850Z AUTO 23021KT 9999 OVC022 11/07 Q1005 SW (230°) 24.2mph 11°C 7°C
16/03/19 08:20 EGLL 160820Z AUTO 24021KT 9999 BKN020 OVC029 11/07 Q1005 NOSIG WSW (240°) 24.2mph 11°C 7°C
16/03/19 07:50 EGLL 160750Z AUTO 23017KT 9999 BKN017 OVC031 11/08 Q1005 NOSIG SW (230°) 19.6mph 11°C 8°C
16/03/19 07:20 EGLL 160720Z AUTO 23016KT 9999 BKN019 BKN025 OVC032 11/08 Q1006 NOSIG SW (230°) 18.4mph 11°C 8°C
16/03/19 06:50 EGLL 160650Z AUTO 23017G28KT 9999 BKN020 OVC026 11/08 Q1006 SW (230°) 19.6mph 32.2mph 11°C 8°C
16/03/19 06:20 EGLL 160620Z AUTO 24018KT 9999 BKN017 OVC024 11/08 Q1006 WSW (240°) 20.7mph 11°C 8°C
16/03/19 05:50 EGLL 160550Z AUTO 24016KT 9999 OVC017 11/08 Q1006 NOSIG WSW (240°) 18.4mph 11°C 8°C
16/03/19 04:50 EGLL 160450Z AUTO 23015KT 9999 BKN016 OVC020 11/08 Q1007 NOSIG SW (230°) 17.3mph 11°C 8°C
16/03/19 04:20 EGLL 160420Z 23018KT 9999 BKN017 OVC026 11/08 Q1007 SW (230°) 20.7mph 11°C 8°C
16/03/19 03:50 EGLL 160350Z AUTO 23016KT 9999 BKN015 OVC022 11/08 Q1007 SW (230°) 18.4mph 11°C 8°C
16/03/19 03:20 EGLL 160320Z AUTO 23017KT 9999 BKN016 OVC024 11/08 Q1007 SW (230°) 19.6mph 11°C 8°C
16/03/19 02:50 EGLL 160250Z AUTO 23019KT 9999 BKN017 11/08 Q1008 NOSIG SW (230°) 21.9mph 11°C 8°C
16/03/19 02:20 EGLL 160220Z AUTO 23016KT 9999 BKN018 12/09 Q1008 TEMPO BKN014 SW (230°) 18.4mph 12°C 9°C
16/03/19 01:50 EGLL 160150Z AUTO 24015KT 9999 BKN017 12/09 Q1008 TEMPO BKN014 WSW (240°) 17.3mph 12°C 9°C
16/03/19 01:20 EGLL 160120Z AUTO 23016KT 9999 BKN014 OVC023 12/09 Q1009 TEMPO BKN008 SW (230°) 18.4mph 12°C 9°C
16/03/19 00:50 EGLL 160050Z AUTO 23014KT 9999 BKN011 OVC022 11/10 Q1009 TEMPO BKN008 SW (230°) 16.1mph 11°C 10°C
16/03/19 00:20 EGLL 160020Z AUTO 23012KT 9999 BKN011 OVC022 11/10 Q1009 TEMPO BKN008 SW (230°) 13.8mph 11°C 10°C
15/03/19 23:50 EGLL 152350Z AUTO 21008KT 9999 -RA BKN009 OVC014 11/10 Q1010 TEMPO SCT009 -RA SSW (210°) 9.2mph 11°C 10°C
15/03/19 23:20 EGLL 152320Z AUTO 23007KT 9999 BKN011 OVC016 11/09 Q1010 TEMPO BKN008 SW (230°) 8.1mph 11°C 9°C
15/03/19 22:50 EGLL 152250Z AUTO 23009KT 9999 BKN008 OVC014 10/09 Q1011 NOSIG SW (230°) 10.4mph 10°C 9°C
15/03/19 22:20 EGLL 152220Z AUTO 23010KT 8000 BKN010 BKN014 OVC019 10/09 Q1011 TEMPO BKN008 SW (230°) 11.5mph 10°C 9°C
15/03/19 21:50 EGLL 152150Z AUTO 23010KT 9999 BKN015 OVC023 11/08 Q1011 TEMPO BKN009 SW (230°) 11.5mph 11°C 8°C
15/03/19 21:20 EGLL 152120Z AUTO 24012KT 9999 BKN025 BKN030 OVC041 11/08 Q1011 TEMPO BKN014 WSW (240°) 13.8mph 11°C 8°C